Portada
METAR-TAF:

METAR-TAF

Aeroports :

Hohhot, Xina

latitud: 40-49N, longitud: 111-41E, altitud: 1065 m

Observació

L'informe es va fer fa 36 minuts, a les 20:00 UTC
Vent 4 kt del Est/Sud-Est, variant entre Est i Sud/Sud-Est
Temperatura 9°C
Humitat 61%
Pressió 1010 hPa
Visibilitat 10 km o més
sense núvols per sota de 1500 mi sense presència de cumulonimbus.

METAR: ZBHH 012000Z 11002MPS 080V150 CAVOK 09/02 Q1010 NOSIG

Hora: 04:36 (20:36 UTC)

Pronòstic

L'informe es va fer fa 5 hores i 28 minuts, a les 15:08 UTC
Pronòstic vàlid del 01 a les 18 UTC al 02 a les 18 UTC
Vent 8 kt del Sud-Oest
Visibilitat 10 km o més
Escasses núvols a una alçada de 4000 ft
Evolucionant progressivament
l' 02 a les 04 UTC al 02 a les 05 UTC
Vent 17 kt del Oest/Nord-Oest amb ràfegues de 27 kt
Evolucionant progressivament
l' 02 a les 12 UTC al 02 a les 13 UTC
Vent 8 kt del Nord/Nord-Oest

TAF: ZBHH 011508Z 0118/0218 23004MPS 9999 FEW040 TX27/0207Z TN06/0123Z BECMG 0204/0205 30009G14MPS BECMG 0212/0213 33004MPS

Observacions i pronòstics meteorològics de més de 4000 aeroports (METAR i TAF).

Les estacions disponibles són els punts grocs i vermells al mapa.

Posi el ratolí al punt desitjat per veure el nom de l'estació.

Feu clic per veure les observacions i els pronòstics meteorològics.

Per canviar el mapa: feu clic els botons verds amb una creu de color negre per apropar; al botó verd amb un guió per allunyar la imatge; o en les fletxes verdes per a mapes adjacents.


METAR-TAF: